Time;durP1;ratioP1;P1;durP2;ratioP2;P2;SDS_P1;SDS_P2;PMS_P1;PMS_P2;Temp;Humidity;BMP_temperature;BMP_pressure;BME280_temperature;BME280_humidity;BME280_pressure;Samples;Min_cycle;Max_cycle;Signal;HPM_P1;HPM_P2
2024/01/22 00:00:56;;;;;;;;;;;;;;;;;;6033197;23;89496;-67
2024/01/22 00:03:21;;;;;;;;;;;;;;;;;;6034644;23;90685;-68
2024/01/22 00:05:47;;;;;;;;;;;;;;;;;;6032885;23;89316;-68
2024/01/22 00:08:12;;;;;;;;;;;;;;;;;;6032410;23;89473;-67
2024/01/22 00:10:37;;;;;;;;;;;;;;;;;;6032075;23;90710;-67
2024/01/22 00:13:02;;;;;;;;;;;;;;;;;;6032937;23;89350;-68
2024/01/22 00:15:28;;;;;;;;;;;;;;;;;;6032857;23;89537;-67
2024/01/22 00:17:53;;;;;;;;;;;;;;;;;;6032884;23;89559;-66
2024/01/22 00:20:18;;;;;;;;;;;;;;;;;;6031926;23;89671;-66
2024/01/22 00:22:43;;;;;;;;;;;;;;;;;;6032056;23;89577;-67
2024/01/22 00:25:09;;;;;;;;;;;;;;;;;;6036325;23;89625;-67
2024/01/22 00:27:34;;;;;;;;;;;;;;;;;;6032721;23;88943;-68
2024/01/22 00:29:59;;;;;;;;;;;;;;;;;;6032939;23;89657;-67
2024/01/22 00:32:24;;;;;;;;;;;;;;;;;;6032210;23;89420;-69
2024/01/22 00:34:49;;;;;;;;;;;;;;;;;;6032632;23;88982;-67
2024/01/22 00:37:15;;;;;;;;;;;;;;;;;;6030830;23;92357;-66
2024/01/22 00:39:40;;;;;;;;;;;;;;;;;;6032360;23;89463;-66
2024/01/22 00:42:05;;;;;;;;;;;;;;;;;;6032209;23;89171;-67
2024/01/22 00:44:30;;;;;;;;;;;;;;;;;;6032823;23;89758;-66
2024/01/22 00:46:55;;;;;;;;;;;;;;;;;;6034040;23;91888;-68
2024/01/22 00:49:21;;;;;;;;;;;;;;;;;;6033221;23;89692;-67
2024/01/22 00:51:46;;;;;;;;;;;;;;;;;;6032905;23;89496;-66
2024/01/22 00:54:11;;;;;;;;;;;;;;;;;;6032592;23;89470;-67
2024/01/22 00:56:36;;;;;;;;;;;;;;;;;;6032264;23;89726;-68
2024/01/22 00:59:01;;;;;;;;;;;;;;;;;;6032863;23;89184;-69
2024/01/22 01:01:29;;;;;;;;;;;;;;;;;;6030847;23;90412;-70
2024/01/22 01:03:56;;;;;;;;;;;;;;;;;;6032812;23;89977;-71
2024/01/22 01:06:21;;;;;;;;;;;;;;;;;;6036334;23;89513;-70
2024/01/22 01:08:46;;;;;;;;;;;;;;;;;;6032859;23;90377;-70
2024/01/22 01:11:12;;;;;;;;;;;;;;;;;;6032770;23;89254;-70
2024/01/22 01:13:37;;;;;;;;;;;;;;;;;;6033237;23;89070;-70
2024/01/22 01:16:02;;;;;;;;;;;;;;;;;;6032781;23;90664;-69
2024/01/22 01:18:27;;;;;;;;;;;;;;;;;;6032404;23;89291;-69
2024/01/22 01:20:53;;;;;;;;;;;;;;;;;;6030714;23;90055;-71
2024/01/22 01:23:18;;;;;;;;;;;;;;;;;;6033812;23;89732;-70
2024/01/22 01:25:43;;;;;;;;;;;;;;;;;;6034798;23;89225;-70
2024/01/22 01:28:08;;;;;;;;;;;;;;;;;;6038299;23;89016;-69
2024/01/22 01:30:33;;;;;;;;;;;;;;;;;;6035440;23;89116;-67
2024/01/22 01:32:58;;;;;;;;;;;;;;;;;;6034791;23;89149;-67
2024/01/22 01:35:24;;;;;;;;;;;;;;;;;;6034031;23;89974;-67
2024/01/22 01:37:49;;;;;;;;;;;;;;;;;;6033731;23;89749;-69
2024/01/22 01:40:14;;;;;;;;;;;;;;;;;;6033171;23;89215;-67
2024/01/22 01:42:43;;;;;;;;;;;;;;;;;;6033821;23;89589;-68
2024/01/22 01:45:11;;;;;;;;;;;;;;;;;;6033038;23;90202;-70
2024/01/22 01:47:36;;;;;;;;;;;;;;;;;;6033389;23;89882;-69
2024/01/22 01:50:01;;;;;;;;;;;;;;;;;;6037501;23;89530;-66
2024/01/22 01:52:27;;;;;;;;;;;;;;;;;;6033367;23;89003;-67
2024/01/22 01:54:52;;;;;;;;;;;;;;;;;;6033328;23;89947;-69
2024/01/22 01:57:17;;;;;;;;;;;;;;;;;;6033571;23;89711;-66
2024/01/22 01:59:45;;;;;;;;;;;;;;;;;;6033508;23;89204;-71
2024/01/22 02:02:11;;;;;;;;;;;;;;;;;;6032328;23;90926;-67
2024/01/22 02:04:37;;;;;;;;;;;;;;;;;;6033431;23;89311;-68
2024/01/22 02:07:03;;;;;;;;;;;;;;;;;;6034120;23;89013;-68
2024/01/22 02:09:45;;;;;;;;;;;;;;;;;;6031506;23;89927;-70
2024/01/22 02:12:10;;;;;;;;;;;;;;;;;;6036797;23;89250;-67
2024/01/22 02:14:35;;;;;;;;;;;;;;;;;;6033442;23;89666;-68
2024/01/22 02:17:00;;;;;;;;;;;;;;;;;;6033300;23;89380;-67
2024/01/22 02:19:25;;;;;;;;;;;;;;;;;;6033053;23;89052;-68
2024/01/22 02:21:51;;;;;;;;;;;;;;;;;;6033149;23;90005;-68
2024/01/22 02:24:16;;;;;;;;;;;;;;;;;;6032777;23;90061;-66
2024/01/22 02:26:41;;;;;;;;;;;;;;;;;;6033928;23;89493;-67
2024/01/22 02:29:06;;;;;;;;;;;;;;;;;;6033276;23;89394;-69
2024/01/22 02:31:31;;;;;;;;;;;;;;;;;;6033568;23;89787;-66
2024/01/22 02:33:58;;;;;;;;;;;;;;;;;;6034660;23;89731;-66
2024/01/22 02:36:23;;;;;;;;;;;;;;;;;;6032956;23;89471;-67
2024/01/22 02:38:48;;;;;;;;;;;;;;;;;;6033029;23;89388;-70
2024/01/22 02:41:13;;;;;;;;;;;;;;;;;;6033130;23;89789;-67
2024/01/22 02:43:38;;;;;;;;;;;;;;;;;;6033135;23;89938;-67
2024/01/22 02:46:04;;;;;;;;;;;;;;;;;;6033935;23;89436;-70
2024/01/22 02:48:29;;;;;;;;;;;;;;;;;;6033377;23;90295;-68
2024/01/22 02:50:54;;;;;;;;;;;;;;;;;;6033559;23;89740;-68
2024/01/22 02:53:19;;;;;;;;;;;;;;;;;;6033291;23;90719;-68
2024/01/22 02:55:44;;;;;;;;;;;;;;;;;;6036878;23;90033;-70
2024/01/22 02:58:10;;;;;;;;;;;;;;;;;;6032024;23;89771;-68
2024/01/22 03:00:35;;;;;;;;;;;;;;;;;;6033896;23;89931;-71
2024/01/22 03:03:00;;;;;;;;;;;;;;;;;;6031619;23;91979;-67
2024/01/22 03:05:25;;;;;;;;;;;;;;;;;;6033612;23;89578;-69
2024/01/22 03:07:51;;;;;;;;;;;;;;;;;;6033358;23;90600;-69
2024/01/22 03:10:16;;;;;;;;;;;;;;;;;;6034083;23;89334;-69
2024/01/22 03:12:42;;;;;;;;;;;;;;;;;;6034148;23;89090;-70
2024/01/22 03:15:07;;;;;;;;;;;;;;;;;;6041112;23;89775;-71
2024/01/22 03:17:33;;;;;;;;;;;;;;;;;;6033335;23;89466;-71
2024/01/22 03:19:58;;;;;;;;;;;;;;;;;;6033499;23;90227;-71
2024/01/22 03:22:23;;;;;;;;;;;;;;;;;;6032904;23;89636;-70
2024/01/22 03:24:48;;;;;;;;;;;;;;;;;;6031448;23;89639;-67
2024/01/22 03:27:13;;;;;;;;;;;;;;;;;;6033778;23;89646;-67
2024/01/22 03:29:39;;;;;;;;;;;;;;;;;;6032847;23;89192;-67
2024/01/22 03:32:04;;;;;;;;;;;;;;;;;;6033883;23;89479;-67
2024/01/22 03:34:29;;;;;;;;;;;;;;;;;;6033486;23;89706;-67
2024/01/22 03:36:54;;;;;;;;;;;;;;;;;;6036753;23;89180;-67
2024/01/22 03:39:20;;;;;;;;;;;;;;;;;;6033458;23;89633;-66
2024/01/22 03:41:45;;;;;;;;;;;;;;;;;;6032933;23;89359;-66
2024/01/22 03:44:10;;;;;;;;;;;;;;;;;;6031504;23;89778;-67
2024/01/22 03:46:36;;;;;;;;;;;;;;;;;;6031841;23;89700;-69
2024/01/22 03:49:01;;;;;;;;;;;;;;;;;;6031187;23;91936;-66
2024/01/22 03:51:26;;;;;;;;;;;;;;;;;;6031277;23;89327;-67
2024/01/22 03:53:51;;;;;;;;;;;;;;;;;;6032848;23;89674;-68
2024/01/22 03:56:19;;;;;;;;;;;;;;;;;;6032561;23;89330;-67
2024/01/22 03:58:44;;;;;;;;;;;;;;;;;;6036083;23;88966;-67
2024/01/22 04:01:09;;;;;;;;;;;;;;;;;;6032250;23;89163;-68
2024/01/22 04:03:35;;;;;;;;;;;;;;;;;;6034026;23;89614;-67
2024/01/22 04:06:00;;;;;;;;;;;;;;;;;;6033043;23;89759;-67
2024/01/22 04:08:25;;;;;;;;;;;;;;;;;;6031011;23;91946;-66
2024/01/22 04:10:51;;;;;;;;;;;;;;;;;;6032866;23;90392;-67
2024/01/22 04:13:16;;;;;;;;;;;;;;;;;;6031407;23;91473;-67
2024/01/22 04:15:41;;;;;;;;;;;;;;;;;;6032884;23;90496;-66
2024/01/22 04:18:06;;;;;;;;;;;;;;;;;;6032127;23;89653;-70
2024/01/22 04:20:32;;;;;;;;;;;;;;;;;;6035988;23;89607;-67
2024/01/22 04:22:57;;;;;;;;;;;;;;;;;;6032956;23;89028;-70
2024/01/22 04:25:22;;;;;;;;;;;;;;;;;;6032807;23;89743;-67
2024/01/22 04:27:47;;;;;;;;;;;;;;;;;;6032803;23;90178;-69
2024/01/22 04:30:13;;;;;;;;;;;;;;;;;;6032354;23;89196;-69
2024/01/22 04:32:38;;;;;;;;;;;;;;;;;;6030528;23;91777;-67
2024/01/22 04:35:04;;;;;;;;;;;;;;;;;;6031304;23;89335;-68
2024/01/22 04:37:29;;;;;;;;;;;;;;;;;;6032387;23;89141;-68
2024/01/22 04:39:55;;;;;;;;;;;;;;;;;;6032038;23;90683;-66
2024/01/22 04:42:20;;;;;;;;;;;;;;;;;;6036083;23;89091;-66
2024/01/22 04:44:46;;;;;;;;;;;;;;;;;;6032541;23;89610;-67
2024/01/22 04:47:11;;;;;;;;;;;;;;;;;;6032880;23;89961;-66
2024/01/22 04:49:37;;;;;;;;;;;;;;;;;;6033051;23;90721;-70
2024/01/22 04:52:02;;;;;;;;;;;;;;;;;;6031437;23;91064;-71
2024/01/22 04:54:27;;;;;;;;;;;;;;;;;;6033519;23;89081;-71
2024/01/22 04:56:54;;;;;;;;;;;;;;;;;;6036050;23;89736;-71
2024/01/22 04:59:19;;;;;;;;;;;;;;;;;;6036209;23;90968;-72
2024/01/22 05:01:45;;;;;;;;;;;;;;;;;;6033463;23;89807;-70
2024/01/22 05:04:10;;;;;;;;;;;;;;;;;;6037114;23;89408;-69
2024/01/22 05:06:35;;;;;;;;;;;;;;;;;;6034160;23;89308;-70
2024/01/22 05:09:00;;;;;;;;;;;;;;;;;;6034181;23;89605;-67
2024/01/22 05:11:26;;;;;;;;;;;;;;;;;;6033624;23;89524;-71
2024/01/22 05:13:52;;;;;;;;;;;;;;;;;;6031211;23;92043;-70
2024/01/22 05:16:17;;;;;;;;;;;;;;;;;;6034101;23;88986;-71
2024/01/22 05:18:43;;;;;;;;;;;;;;;;;;6033941;23;89597;-67
2024/01/22 05:21:08;;;;;;;;;;;;;;;;;;6033925;23;90248;-67
2024/01/22 05:23:33;;;;;;;;;;;;;;;;;;6037475;23;89248;-70
2024/01/22 05:25:59;;;;;;;;;;;;;;;;;;6034345;23;89440;-71
2024/01/22 05:28:24;;;;;;;;;;;;;;;;;;6034048;23;89001;-67
2024/01/22 05:30:49;;;;;;;;;;;;;;;;;;6033792;23;89792;-68
2024/01/22 05:33:14;;;;;;;;;;;;;;;;;;6033791;23;89858;-67
2024/01/22 05:35:40;;;;;;;;;;;;;;;;;;6032439;23;89173;-67
2024/01/22 05:38:05;;;;;;;;;;;;;;;;;;6034226;23;89781;-67
2024/01/22 05:40:30;;;;;;;;;;;;;;;;;;6033620;23;89324;-67
2024/01/22 05:42:55;;;;;;;;;;;;;;;;;;6033303;23;89174;-68
2024/01/22 05:45:20;;;;;;;;;;;;;;;;;;6036967;23;89635;-68
2024/01/22 05:47:46;;;;;;;;;;;;;;;;;;6033500;23;89338;-67
2024/01/22 05:50:11;;;;;;;;;;;;;;;;;;6032094;23;92190;-67
2024/01/22 05:52:36;;;;;;;;;;;;;;;;;;6033993;23;89278;-67
2024/01/22 05:55:01;;;;;;;;;;;;;;;;;;6032977;23;89492;-67
2024/01/22 05:57:26;;;;;;;;;;;;;;;;;;6032677;23;89687;-67
2024/01/22 05:59:52;;;;;;;;;;;;;;;;;;6033601;23;89354;-70
2024/01/22 06:02:17;;;;;;;;;;;;;;;;;;6033739;23;89458;-70
2024/01/22 06:04:42;;;;;;;;;;;;;;;;;;6033886;23;90386;-66
2024/01/22 06:07:07;;;;;;;;;;;;;;;;;;6037657;23;89608;-70
2024/01/22 06:09:33;;;;;;;;;;;;;;;;;;6033945;23;91096;-67
2024/01/22 06:11:58;;;;;;;;;;;;;;;;;;6031656;23;91849;-67
2024/01/22 06:14:23;;;;;;;;;;;;;;;;;;6032942;23;89391;-67
2024/01/22 06:16:48;;;;;;;;;;;;;;;;;;6032931;23;90144;-67
2024/01/22 06:19:13;;;;;;;;;;;;;;;;;;6033513;23;89282;-67
2024/01/22 06:21:38;;;;;;;;;;;;;;;;;;6033154;23;89737;-69
2024/01/22 06:24:04;;;;;;;;;;;;;;;;;;6032574;23;91385;-70
2024/01/22 06:26:29;;;;;;;;;;;;;;;;;;6033662;23;89316;-71
2024/01/22 06:28:57;;;;;;;;;;;;;;;;;;6037398;23;89013;-67
2024/01/22 06:31:22;;;;;;;;;;;;;;;;;;6032985;23;89077;-68
2024/01/22 06:33:47;;;;;;;;;;;;;;;;;;6031840;23;90614;-71
2024/01/22 06:36:12;;;;;;;;;;;;;;;;;;6031361;23;91147;-70
2024/01/22 06:38:38;;;;;;;;;;;;;;;;;;6035475;23;89205;-71
2024/01/22 06:41:08;;;;;;;;;;;;;;;;;;6035073;23;90708;-70
2024/01/22 06:43:33;;;;;;;;;;;;;;;;;;6035315;23;89986;-67
2024/01/22 06:45:59;;;;;;;;;;;;;;;;;;6033613;23;89643;-66
2024/01/22 06:48:24;;;;;;;;;;;;;;;;;;6034022;23;89741;-67
2024/01/22 06:50:49;;;;;;;;;;;;;;;;;;6037195;23;89933;-67
2024/01/22 06:53:14;;;;;;;;;;;;;;;;;;6034215;23;89282;-68
2024/01/22 06:55:39;;;;;;;;;;;;;;;;;;6033702;23;89530;-70
2024/01/22 06:58:05;;;;;;;;;;;;;;;;;;6033740;23;89660;-68
2024/01/22 07:00:32;;;;;;;;;;;;;;;;;;6032866;23;89684;-66
2024/01/22 07:02:58;;;;;;;;;;;;;;;;;;6032925;23;89662;-67
2024/01/22 07:05:26;;;;;;;;;;;;;;;;;;6032087;23;90616;-71
2024/01/22 07:07:51;;;;;;;;;;;;;;;;;;6031099;23;89727;-68
2024/01/22 07:10:16;;;;;;;;;;;;;;;;;;6030964;23;91226;-70
2024/01/22 07:12:42;;;;;;;;;;;;;;;;;;6036584;23;89541;-69
2024/01/22 07:15:12;;;;;;;;;;;;;;;;;;6033372;23;89568;-70
2024/01/22 07:17:37;;;;;;;;;;;;;;;;;;6033475;23;90127;-70
2024/01/22 07:20:02;;;;;;;;;;;;;;;;;;6033230;23;89399;-71
2024/01/22 07:22:28;;;;;;;;;;;;;;;;;;6033091;23;89551;-71
2024/01/22 07:24:53;;;;;;;;;;;;;;;;;;6032738;23;89240;-71
2024/01/22 07:27:18;;;;;;;;;;;;;;;;;;6033197;23;89000;-71
2024/01/22 07:29:44;;;;;;;;;;;;;;;;;;6033046;23;89626;-72
2024/01/22 07:32:09;;;;;;;;;;;;;;;;;;6036816;23;90244;-70
2024/01/22 07:34:34;;;;;;;;;;;;;;;;;;6033921;23;89431;-70
2024/01/22 07:36:59;;;;;;;;;;;;;;;;;;6033365;23;89173;-71
2024/01/22 07:39:24;;;;;;;;;;;;;;;;;;6033706;23;89506;-71
2024/01/22 07:41:50;;;;;;;;;;;;;;;;;;6033458;23;89982;-70
2024/01/22 07:44:15;;;;;;;;;;;;;;;;;;6032617;23;89227;-71
2024/01/22 07:46:40;;;;;;;;;;;;;;;;;;6032458;23;89436;-69
2024/01/22 07:49:07;;;;;;;;;;;;;;;;;;6032011;23;88936;-70
2024/01/22 07:51:33;;;;;;;;;;;;;;;;;;6032105;23;90165;-70
2024/01/22 07:53:58;;;;;;;;;;;;;;;;;;6035129;23;89021;-70
2024/01/22 07:56:23;;;;;;;;;;;;;;;;;;6030105;23;92114;-69
2024/01/22 07:58:48;;;;;;;;;;;;;;;;;;6033155;23;89703;-70
2024/01/22 08:01:14;;;;;;;;;;;;;;;;;;6033079;23;89872;-71
2024/01/22 08:03:39;;;;;;;;;;;;;;;;;;6033372;23;89482;-70
2024/01/22 08:06:04;;;;;;;;;;;;;;;;;;6031236;23;89050;-69
2024/01/22 08:08:30;;;;;;;;;;;;;;;;;;6033106;23;89675;-69
2024/01/22 08:10:55;;;;;;;;;;;;;;;;;;6033249;23;89413;-70
2024/01/22 08:13:21;;;;;;;;;;;;;;;;;;6032375;23;88988;-71
2024/01/22 08:15:50;;;;;;;;;;;;;;;;;;6036379;23;90429;-72
2024/01/22 08:18:15;;;;;;;;;;;;;;;;;;6033520;23;89742;-71
2024/01/22 08:20:41;;;;;;;;;;;;;;;;;;6034775;23;89638;-71
2024/01/22 08:23:07;;;;;;;;;;;;;;;;;;6036442;23;90001;-72
2024/01/22 08:25:32;;;;;;;;;;;;;;;;;;6033549;23;89201;-71
2024/01/22 08:28:00;;;;;;;;;;;;;;;;;;6033243;23;89966;-70
2024/01/22 08:30:26;;;;;;;;;;;;;;;;;;6030552;23;92144;-69
2024/01/22 08:32:51;;;;;;;;;;;;;;;;;;6032917;23;89026;-70
2024/01/22 08:35:20;;;;;;;;;;;;;;;;;;6032707;23;90171;-69
2024/01/22 08:37:50;;;;;;;;;;;;;;;;;;6032907;23;92137;-68
2024/01/22 08:40:17;;;;;;;;;;;;;;;;;;6030851;23;91495;-70
2024/01/22 08:42:49;;;;;;;;;;;;;;;;;;6029555;23;90123;-68
2024/01/22 08:45:14;;;;;;;;;;;;;;;;;;6032195;23;89027;-72
2024/01/22 08:47:39;;;;;;;;;;;;;;;;;;6032614;23;89267;-70
2024/01/22 08:50:05;;;;;;;;;;;;;;;;;;6003858;23;91055;-72
2024/01/22 08:52:31;;;;;;;;;;;;;;;;;;6002280;23;90950;-71
2024/01/22 08:54:56;;;;;;;;;;;;;;;;;;6003786;23;89543;-67
2024/01/22 08:57:21;;;;;;;;;;;;;;;;;;6001823;23;90411;-71
2024/01/22 08:59:46;;;;;;;;;;;;;;;;;;6006726;23;89580;-67
2024/01/22 09:02:11;;;;;;;;;;;;;;;;;;6000305;23;89874;-69
2024/01/22 09:04:37;;;;;;;;;;;;;;;;;;6003935;23;89522;-65
2024/01/22 09:07:02;;;;;;;;;;;;;;;;;;6003729;23;89915;-71
2024/01/22 09:09:27;;;;;;;;;;;;;;;;;;6004548;23;89190;-67
2024/01/22 09:11:52;;;;;;;;;;;;;;;;;;6001975;23;89676;-67
2024/01/22 09:14:18;;;;;;;;;;;;;;;;;;6004102;23;89284;-66
2024/01/22 09:16:43;;;;;;;;;;;;;;;;;;6002801;23;89191;-64
2024/01/22 09:19:08;;;;;;;;;;;;;;;;;;6003793;23;89435;-65
2024/01/22 09:21:34;;;;;;;;;;;;;;;;;;6005616;23;89694;-69
2024/01/22 09:24:01;;;;;;;;;;;;;;;;;;6003704;23;90066;-68
2024/01/22 09:26:26;;;;;;;;;;;;;;;;;;6003103;23;89882;-70
2024/01/22 09:28:53;;;;;;;;;;;;;;;;;;6002435;23;89770;-74
2024/01/22 09:31:18;;;;;;;;;;;;;;;;;;6002094;23;89484;-73
2024/01/22 09:33:44;;;;;;;;;;;;;;;;;;6002344;23;92125;-73
2024/01/22 09:36:09;;;;;;;;;;;;;;;;;;6003013;23;89798;-65
2024/01/22 09:38:34;;;;;;;;;;;;;;;;;;6003629;23;88985;-67
2024/01/22 09:41:00;;;;;;;;;;;;;;;;;;6007806;23;90470;-68
2024/01/22 09:43:25;;;;;;;;;;;;;;;;;;6004949;23;90055;-68
2024/01/22 09:45:50;;;;;;;;;;;;;;;;;;6004557;23;89676;-67
2024/01/22 09:48:16;;;;;;;;;;;;;;;;;;6004790;23;90180;-69
2024/01/22 09:50:42;;;;;;;;;;;;;;;;;;6005108;23;89567;-70
2024/01/22 09:53:16;;;;;;;;;;;;;;;;;;5895374;23;9999672;-70
2024/01/22 09:55:42;;;;;;;;;;;;;;;;;;5401960;23;10000329;-70
2024/01/22 09:58:11;;;;;;;;;;;;;;;;;;6033432;23;91842;-73
2024/01/22 10:00:37;;;;;;;;;;;;;;;;;;6034680;23;91426;-71
2024/01/22 10:03:03;;;;;;;;;;;;;;;;;;6038665;23;89058;-69
2024/01/22 10:05:28;;;;;;;;;;;;;;;;;;6032747;23;89677;-69
2024/01/22 10:07:54;;;;;;;;;;;;;;;;;;6032406;23;89593;-70
2024/01/22 10:10:21;;;;;;;;;;;;;;;;;;6030697;23;90762;-71
2024/01/22 10:12:56;;;;;;;;;;;;;;;;;;6033077;23;89102;-67
2024/01/22 10:15:21;;;;;;;;;;;;;;;;;;6033209;23;89507;-68
2024/01/22 10:17:46;;;;;;;;;;;;;;;;;;4960697;23;10000864;-68
2024/01/22 10:20:12;;;;;;;;;;;;;;;;;;3893107;23;10000758;-71
2024/01/22 10:22:37;;;;;;;;;;;;;;;;;;4971305;23;10000489;-67
2024/01/22 10:25:02;;;;;;;;;;;;;;;;;;6036536;23;88968;-67
2024/01/22 10:27:28;;;;;;;;;;;;;;;;;;6055633;23;89277;-67
2024/01/22 10:30:07;;;;;;;;;;;;;;;;;;6032686;23;89020;-72
2024/01/22 10:32:32;;;;;;;;;;;;;;;;;;6030364;23;89370;-67
2024/01/22 10:34:57;;;;;;;;;;;;;;;;;;6029156;23;91045;-67
2024/01/22 10:37:23;;;;;;;;;;;;;;;;;;6031182;23;89589;-66
2024/01/22 10:39:48;;;;;;;;;;;;;;;;;;6030895;23;89050;-70
2024/01/22 10:42:17;;;;;;;;;;;;;;;;;;6032279;23;90033;-69
2024/01/22 10:44:47;;;;;;;;;;;;;;;;;;6030482;23;91671;-66
2024/01/22 10:47:13;;;;;;;;;;;;;;;;;;6036350;23;89171;-69
2024/01/22 10:49:40;;;;;;;;;;;;;;;;;;6032955;23;89977;-70
2024/01/22 10:52:05;;;;;;;;;;;;;;;;;;6031259;23;89464;-66
2024/01/22 10:54:31;;;;;;;;;;;;;;;;;;6031869;23;89792;-68
2024/01/22 10:57:03;;;;;;;;;;;;;;;;;;6031287;23;89133;-72
2024/01/22 10:59:29;;;;;;;;;;;;;;;;;;6031314;23;89629;-72
2024/01/22 11:01:54;;;;;;;;;;;;;;;;;;6032211;23;89725;-74
2024/01/22 11:04:23;;;;;;;;;;;;;;;;;;6028731;23;92051;-69
2024/01/22 11:06:51;;;;;;;;;;;;;;;;;;6032465;23;89429;-72
2024/01/22 11:09:16;;;;;;;;;;;;;;;;;;6034671;23;89719;-71
2024/01/22 11:11:42;;;;;;;;;;;;;;;;;;6032315;23;89504;-68
2024/01/22 11:14:08;;;;;;;;;;;;;;;;;;6032288;23;89560;-69
2024/01/22 11:16:33;;;;;;;;;;;;;;;;;;6030033;23;92065;-70
2024/01/22 11:19:03;;;;;;;;;;;;;;;;;;6030488;23;88923;-69
2024/01/22 11:21:32;;;;;;;;;;;;;;;;;;6032068;23;89620;-66
2024/01/22 11:24:12;;;;;;;;;;;;;;;;;;6031485;23;89795;-66
2024/01/22 11:26:44;;;;;;;;;;;;;;;;;;6032191;23;89393;-66
2024/01/22 11:29:10;;;;;;;;;;;;;;;;;;6031739;23;91248;-66
2024/01/22 11:31:37;;;;;;;;;;;;;;;;;;6036208;23;89623;-72
2024/01/22 11:34:03;;;;;;;;;;;;;;;;;;6033710;23;91071;-69
2024/01/22 11:36:47;;;;;;;;;;;;;;;;;;6032825;23;90403;-74
2024/01/22 11:39:41;;;;;;;;;;;;;;;;;;6015337;23;89661;-74
2024/01/22 11:42:15;;;;;;;;;;;;;;;;;;6033692;23;89774;-74
2024/01/22 11:44:41;;;;;;;;;;;;;;;;;;6032445;23;89507;-67
2024/01/22 11:47:10;;;;;;;;;;;;;;;;;;6033032;23;89413;-71
2024/01/22 11:49:36;;;;;;;;;;;;;;;;;;6031615;23;90863;-67
2024/01/22 11:52:11;;;;;;;;;;;;;;;;;;6032037;23;89690;-68
2024/01/22 11:54:37;;;;;;;;;;;;;;;;;;6034651;23;89454;-68
2024/01/22 11:57:02;;;;;;;;;;;;;;;;;;6031766;23;89517;-66
2024/01/22 11:59:28;;;;;;;;;;;;;;;;;;6031006;23;89199;-67
2024/01/22 12:02:04;;;;;;;;;;;;;;;;;;6031353;23;89668;-68
2024/01/22 12:04:29;;;;;;;;;;;;;;;;;;6028693;23;91730;-67
2024/01/22 12:06:55;;;;;;;;;;;;;;;;;;6031236;23;89439;-68
2024/01/22 12:09:20;;;;;;;;;;;;;;;;;;6029698;23;90637;-67
2024/01/22 12:11:52;;;;;;;;;;;;;;;;;;6031203;23;89665;-69
2024/01/22 12:14:17;;;;;;;;;;;;;;;;;;6030387;23;89419;-71
2024/01/22 12:16:43;;;;;;;;;;;;;;;;;;6034294;23;89130;-70
2024/01/22 12:19:11;;;;;;;;;;;;;;;;;;6030881;23;89486;-67
2024/01/22 12:21:40;;;;;;;;;;;;;;;;;;6031738;23;89754;-66
2024/01/22 12:24:14;;;;;;;;;;;;;;;;;;6031550;23;89148;-66
2024/01/22 12:26:40;;;;;;;;;;;;;;;;;;6030800;23;88980;-68
2024/01/22 12:29:06;;;;;;;;;;;;;;;;;;6030813;23;89969;-65
2024/01/22 12:31:31;;;;;;;;;;;;;;;;;;6052762;23;89773;-67
2024/01/22 12:34:12;;;;;;;;;;;;;;;;;;6029552;23;90210;-67
2024/01/22 12:36:37;;;;;;;;;;;;;;;;;;6035456;23;90005;-70
2024/01/22 12:39:05;;;;;;;;;;;;;;;;;;6031701;23;89593;-67
2024/01/22 12:41:31;;;;;;;;;;;;;;;;;;6027905;23;89673;-67
2024/01/22 12:43:57;;;;;;;;;;;;;;;;;;6028422;23;91015;-68
2024/01/22 12:46:22;;;;;;;;;;;;;;;;;;6030642;23;89969;-70
2024/01/22 12:48:47;;;;;;;;;;;;;;;;;;6031745;23;90047;-72
2024/01/22 12:51:18;;;;;;;;;;;;;;;;;;6031319;23;89951;-71
2024/01/22 12:53:45;;;;;;;;;;;;;;;;;;6031665;23;89508;-66
2024/01/22 12:56:10;;;;;;;;;;;;;;;;;;6031886;23;89635;-66
2024/01/22 12:58:36;;;;;;;;;;;;;;;;;;6035428;23;90076;-66
2024/01/22 13:01:02;;;;;;;;;;;;;;;;;;6031690;23;89305;-65
2024/01/22 13:03:27;;;;;;;;;;;;;;;;;;6031434;23;89460;-65
2024/01/22 13:05:52;;;;;;;;;;;;;;;;;;6031691;23;89906;-66
2024/01/22 13:08:18;;;;;;;;;;;;;;;;;;6031713;23;90365;-73
2024/01/22 13:10:43;;;;;;;;;;;;;;;;;;6033008;23;89400;-66
2024/01/22 13:13:08;;;;;;;;;;;;;;;;;;6030656;23;89457;-70
2024/01/22 13:15:34;;;;;;;;;;;;;;;;;;6033486;23;89413;-74
2024/01/22 13:17:59;;;;;;;;;;;;;;;;;;6035311;23;89570;-71
2024/01/22 13:20:24;;;;;;;;;;;;;;;;;;6040124;23;89666;-71
2024/01/22 13:22:49;;;;;;;;;;;;;;;;;;6035970;23;89891;-68
2024/01/22 13:25:19;;;;;;;;;;;;;;;;;;6032801;23;89365;-67
2024/01/22 13:27:44;;;;;;;;;;;;;;;;;;6032599;23;90484;-67
2024/01/22 13:30:09;;;;;;;;;;;;;;;;;;6030752;23;89702;-70
2024/01/22 13:32:35;;;;;;;;;;;;;;;;;;6031568;23;88948;-70
2024/01/22 13:35:00;;;;;;;;;;;;;;;;;;6032803;23;89656;-70
2024/01/22 13:37:25;;;;;;;;;;;;;;;;;;6031018;23;91485;-66
2024/01/22 13:39:51;;;;;;;;;;;;;;;;;;6031798;23;89839;-66
2024/01/22 13:42:20;;;;;;;;;;;;;;;;;;6034145;23;92331;-69
2024/01/22 13:44:47;;;;;;;;;;;;;;;;;;6032379;23;89747;-70
2024/01/22 13:47:12;;;;;;;;;;;;;;;;;;6031891;23;89793;-72
2024/01/22 13:49:38;;;;;;;;;;;;;;;;;;6033056;23;89677;-72
2024/01/22 13:52:04;;;;;;;;;;;;;;;;;;6030878;23;89466;-72
2024/01/22 13:54:30;;;;;;;;;;;;;;;;;;6032739;23;89581;-70
2024/01/22 13:56:55;;;;;;;;;;;;;;;;;;6032008;23;89736;-68
2024/01/22 13:59:21;;;;;;;;;;;;;;;;;;6032454;23;89772;-67
2024/01/22 14:01:46;;;;;;;;;;;;;;;;;;6032786;23;89538;-67
2024/01/22 14:04:11;;;;;;;;;;;;;;;;;;6035874;23;89255;-68
2024/01/22 14:06:36;;;;;;;;;;;;;;;;;;6030394;23;91421;-66
2024/01/22 14:09:03;;;;;;;;;;;;;;;;;;6032819;23;89796;-68
2024/01/22 14:11:28;;;;;;;;;;;;;;;;;;6031694;23;89004;-68
2024/01/22 14:13:53;;;;;;;;;;;;;;;;;;6032117;23;89618;-71
2024/01/22 14:16:20;;;;;;;;;;;;;;;;;;6029836;23;91019;-67
2024/01/22 14:18:46;;;;;;;;;;;;;;;;;;6031123;23;89872;-68
2024/01/22 14:21:11;;;;;;;;;;;;;;;;;;6031391;23;90331;-70
2024/01/22 14:23:36;;;;;;;;;;;;;;;;;;6035288;23;89309;-68
2024/01/22 14:26:03;;;;;;;;;;;;;;;;;;6030934;23;90015;-68
2024/01/22 14:28:28;;;;;;;;;;;;;;;;;;6031492;23;89250;-68
2024/01/22 14:30:54;;;;;;;;;;;;;;;;;;6032915;23;89030;-67
2024/01/22 14:33:19;;;;;;;;;;;;;;;;;;6030970;23;92724;-67
2024/01/22 14:35:45;;;;;;;;;;;;;;;;;;6032259;23;89318;-67
2024/01/22 14:38:10;;;;;;;;;;;;;;;;;;6030752;23;89514;-67
2024/01/22 14:40:38;;;;;;;;;;;;;;;;;;6032933;23;89579;-66
2024/01/22 14:43:03;;;;;;;;;;;;;;;;;;6031120;23;90789;-66
2024/01/22 14:45:28;;;;;;;;;;;;;;;;;;6035259;23;89489;-66
2024/01/22 14:47:55;;;;;;;;;;;;;;;;;;6030594;23;89501;-67
2024/01/22 14:50:21;;;;;;;;;;;;;;;;;;6033211;23;88999;-72
2024/01/22 14:52:46;;;;;;;;;;;;;;;;;;6030248;23;92768;-71
2024/01/22 14:55:11;;;;;;;;;;;;;;;;;;6034495;23;89637;-68
2024/01/22 14:57:36;;;;;;;;;;;;;;;;;;6035163;23;89394;-67
2024/01/22 15:00:02;;;;;;;;;;;;;;;;;;6035646;23;90817;-72
2024/01/22 15:02:27;;;;;;;;;;;;;;;;;;6037487;23;89651;-71
2024/01/22 15:04:53;;;;;;;;;;;;;;;;;;6034313;23;88991;-69
2024/01/22 15:07:18;;;;;;;;;;;;;;;;;;6036807;23;90314;-69
2024/01/22 15:09:43;;;;;;;;;;;;;;;;;;6032917;23;89327;-71
2024/01/22 15:12:08;;;;;;;;;;;;;;;;;;6031507;23;90831;-68
2024/01/22 15:14:35;;;;;;;;;;;;;;;;;;6032596;23;89567;-68
2024/01/22 15:17:01;;;;;;;;;;;;;;;;;;6032202;23;89394;-70
2024/01/22 15:19:27;;;;;;;;;;;;;;;;;;6033443;23;90578;-70
2024/01/22 15:21:52;;;;;;;;;;;;;;;;;;6032687;23;89504;-70
2024/01/22 15:24:17;;;;;;;;;;;;;;;;;;6033034;23;89677;-71
2024/01/22 15:26:43;;;;;;;;;;;;;;;;;;6034349;23;89454;-70
2024/01/22 15:29:08;;;;;;;;;;;;;;;;;;6037437;23;89114;-70
2024/01/22 15:31:35;;;;;;;;;;;;;;;;;;6033339;23;89549;-69
2024/01/22 15:34:01;;;;;;;;;;;;;;;;;;6033207;23;89661;-69
2024/01/22 15:36:27;;;;;;;;;;;;;;;;;;6033716;23;90387;-67
2024/01/22 15:38:52;;;;;;;;;;;;;;;;;;6031880;23;92060;-70
2024/01/22 15:41:17;;;;;;;;;;;;;;;;;;6032618;23;89046;-69
2024/01/22 15:43:43;;;;;;;;;;;;;;;;;;6033408;23;89398;-67
2024/01/22 15:46:08;;;;;;;;;;;;;;;;;;6034100;23;90397;-67
2024/01/22 15:48:33;;;;;;;;;;;;;;;;;;6032905;23;89638;-72
2024/01/22 15:50:59;;;;;;;;;;;;;;;;;;6037257;23;89296;-68
2024/01/22 15:53:24;;;;;;;;;;;;;;;;;;6032863;23;89242;-70
2024/01/22 15:55:50;;;;;;;;;;;;;;;;;;6032579;23;89385;-72
2024/01/22 15:58:15;;;;;;;;;;;;;;;;;;6032023;23;89967;-71
2024/01/22 16:00:40;;;;;;;;;;;;;;;;;;6032975;23;89158;-73
2024/01/22 16:03:05;;;;;;;;;;;;;;;;;;6032927;23;89730;-71
2024/01/22 16:05:30;;;;;;;;;;;;;;;;;;6032848;23;90231;-73
2024/01/22 16:07:56;;;;;;;;;;;;;;;;;;6032674;23;89754;-67
2024/01/22 16:10:21;;;;;;;;;;;;;;;;;;6033174;23;89756;-67
2024/01/22 16:12:46;;;;;;;;;;;;;;;;;;6035195;23;89428;-68
2024/01/22 16:15:12;;;;;;;;;;;;;;;;;;6031531;23;90403;-69
2024/01/22 16:17:37;;;;;;;;;;;;;;;;;;6033135;23;91311;-67
2024/01/22 16:20:02;;;;;;;;;;;;;;;;;;6032665;23;89236;-70
2024/01/22 16:22:27;;;;;;;;;;;;;;;;;;6029977;23;89814;-68
2024/01/22 16:24:53;;;;;;;;;;;;;;;;;;6033191;23;89695;-70
2024/01/22 16:27:18;;;;;;;;;;;;;;;;;;6034634;23;89566;-70
2024/01/22 16:29:44;;;;;;;;;;;;;;;;;;6034266;23;89112;-72
2024/01/22 16:32:09;;;;;;;;;;;;;;;;;;6037553;23;89732;-72
2024/01/22 16:34:35;;;;;;;;;;;;;;;;;;6034027;23;89970;-73